createdAt,value
2023-01-15T00:02:25.455Z,6.73
2023-01-15T00:04:53.246Z,6.60
2023-01-15T00:07:20.996Z,7.90
2023-01-15T00:09:48.788Z,7.03
2023-01-15T00:12:16.447Z,7.20
2023-01-15T00:14:44.122Z,6.10
2023-01-15T00:17:11.549Z,6.23
2023-01-15T00:19:39.124Z,6.00
2023-01-15T00:22:06.583Z,6.30
2023-01-15T00:24:53.865Z,5.47
2023-01-15T00:27:41.805Z,6.87
2023-01-15T00:30:12.234Z,6.77
2023-01-15T00:32:40.582Z,5.73
2023-01-15T00:35:08.819Z,6.80
2023-01-15T00:37:36.321Z,6.60
2023-01-15T00:40:04.588Z,5.13
2023-01-15T00:42:32.432Z,5.93
2023-01-15T00:45:06.477Z,6.23
2023-01-15T00:47:35.299Z,6.10
2023-01-15T00:50:03.302Z,6.17
2023-01-15T00:52:31.213Z,5.10
2023-01-15T00:54:58.631Z,5.50
2023-01-15T00:57:26.052Z,5.57
2023-01-15T00:59:53.580Z,5.60
2023-01-15T01:02:21.175Z,5.80
2023-01-15T01:04:48.973Z,6.60
2023-01-15T01:07:16.563Z,5.33
2023-01-15T01:09:44.007Z,5.27
2023-01-15T01:12:12.083Z,4.97
2023-01-15T01:14:39.485Z,4.87
2023-01-15T01:17:06.984Z,5.37
2023-01-15T01:19:34.402Z,5.43
2023-01-15T01:22:02.390Z,5.20
2023-01-15T01:24:29.993Z,4.63
2023-01-15T01:26:57.530Z,5.00
2023-01-15T01:29:25.488Z,4.60
2023-01-15T01:31:52.940Z,4.40
2023-01-15T01:34:20.389Z,6.30
2023-01-15T01:36:48.001Z,4.80
2023-01-15T01:39:17.135Z,4.23
2023-01-15T01:41:45.446Z,4.50
2023-01-15T01:44:32.657Z,4.57
2023-01-15T01:47:01.522Z,5.10
2023-01-15T01:49:28.953Z,4.20
2023-01-15T01:51:58.620Z,4.47
2023-01-15T01:54:27.938Z,4.33
2023-01-15T01:56:55.420Z,4.10
2023-01-15T01:59:24.495Z,4.43
2023-01-15T02:01:52.764Z,5.13
2023-01-15T02:04:22.986Z,4.93
2023-01-15T02:06:51.505Z,5.07
2023-01-15T02:09:18.879Z,4.93
2023-01-15T02:11:46.327Z,4.23
2023-01-15T02:14:16.980Z,5.20
2023-01-15T02:16:48.212Z,4.17
2023-01-15T02:19:35.484Z,4.33
2023-01-15T02:22:22.871Z,4.80
2023-01-15T02:25:10.105Z,4.40
2023-01-15T02:27:39.078Z,4.13
2023-01-15T02:30:26.395Z,4.63
2023-01-15T02:32:56.240Z,4.30
2023-01-15T02:35:37.666Z,4.37
2023-01-15T02:38:08.089Z,3.97
2023-01-15T02:40:36.637Z,4.37
2023-01-15T02:43:05.360Z,4.07
2023-01-15T02:45:34.468Z,4.70
2023-01-15T02:48:06.206Z,4.43
2023-01-15T02:50:37.691Z,3.70
2023-01-15T02:53:08.537Z,4.40
2023-01-15T02:55:38.430Z,4.00
2023-01-15T02:58:09.183Z,3.53
2023-01-15T03:00:40.471Z,4.23
2023-01-15T03:03:27.859Z,3.17
2023-01-15T03:05:59.275Z,4.47
2023-01-15T03:08:26.791Z,4.00
2023-01-15T03:11:04.157Z,4.40
2023-01-15T03:13:36.662Z,3.97
2023-01-15T03:16:39.721Z,4.00
2023-01-15T03:19:27.110Z,3.80
2023-01-15T03:21:58.636Z,3.40
2023-01-15T03:24:29.815Z,3.70
2023-01-15T03:26:57.416Z,4.10
2023-01-15T03:29:27.019Z,4.07
2023-01-15T03:31:54.565Z,4.20
2023-01-15T03:34:22.078Z,3.80
2023-01-15T03:36:49.640Z,3.90
2023-01-15T03:39:17.089Z,3.57
2023-01-15T03:42:04.362Z,4.53
2023-01-15T03:44:51.579Z,4.33
2023-01-15T03:47:39.866Z,4.13
2023-01-15T03:50:27.116Z,4.20
2023-01-15T03:53:14.364Z,3.90
2023-01-15T03:56:01.547Z,4.67
2023-01-15T03:58:48.883Z,3.93
2023-01-15T04:01:19.660Z,4.53
2023-01-15T04:03:49.119Z,4.90
2023-01-15T04:06:16.515Z,4.60
2023-01-15T04:08:44.592Z,3.53
2023-01-15T04:11:12.095Z,4.50
2023-01-15T04:13:39.561Z,4.27
2023-01-15T04:16:07.379Z,3.73
2023-01-15T04:18:34.907Z,4.20
2023-01-15T04:21:03.749Z,4.00
2023-01-15T04:23:32.860Z,3.60
2023-01-15T04:26:00.194Z,3.93
2023-01-15T04:28:27.656Z,3.90
2023-01-15T04:30:57.930Z,3.50
2023-01-15T04:33:26.056Z,3.83
2023-01-15T04:35:53.466Z,3.60
2023-01-15T04:38:20.918Z,3.23
2023-01-15T04:41:08.210Z,3.50
2023-01-15T04:43:55.731Z,3.50
2023-01-15T04:46:24.283Z,2.90
2023-01-15T04:48:51.962Z,3.53
2023-01-15T04:51:19.414Z,2.70
2023-01-15T04:53:47.083Z,2.90
2023-01-15T04:56:14.434Z,2.60
2023-01-15T04:58:42.017Z,2.57
2023-01-15T05:01:13.814Z,2.70
2023-01-15T05:03:41.409Z,2.33
2023-01-15T05:06:08.952Z,2.53
2023-01-15T05:08:36.874Z,2.50
2023-01-15T05:11:05.271Z,2.50
2023-01-15T05:13:33.695Z,2.40
2023-01-15T05:16:09.920Z,3.30
2023-01-15T05:18:37.636Z,2.77
2023-01-15T05:21:05.596Z,2.60
2023-01-15T05:23:33.007Z,2.93
2023-01-15T05:26:03.557Z,3.17
2023-01-15T05:28:30.967Z,3.07
2023-01-15T05:30:58.513Z,2.60
2023-01-15T05:33:26.039Z,2.97
2023-01-15T05:35:53.419Z,2.97
2023-01-15T05:38:20.844Z,3.10
2023-01-15T05:40:48.267Z,2.97
2023-01-15T05:43:15.561Z,3.20
2023-01-15T05:45:43.076Z,3.37
2023-01-15T05:48:10.408Z,2.90
2023-01-15T05:50:37.796Z,3.30
2023-01-15T05:53:05.124Z,3.00
2023-01-15T05:55:32.608Z,3.37
2023-01-15T05:58:00.051Z,3.17
2023-01-15T06:00:29.714Z,3.57
2023-01-15T06:02:57.806Z,3.20
2023-01-15T06:05:25.256Z,3.13
2023-01-15T06:07:53.094Z,3.40
2023-01-15T06:10:20.861Z,3.93
2023-01-15T06:12:48.471Z,3.30
2023-01-15T06:15:15.956Z,3.70
2023-01-15T06:17:43.377Z,3.30
2023-01-15T06:20:11.946Z,3.40
2023-01-15T06:22:39.435Z,3.57
2023-01-15T06:25:07.444Z,4.00
2023-01-15T06:27:35.175Z,3.47
2023-01-15T06:30:02.659Z,3.40
2023-01-15T06:32:30.504Z,3.33
2023-01-15T06:34:58.512Z,3.07
2023-01-15T06:37:26.018Z,3.23
2023-01-15T06:39:53.655Z,3.30
2023-01-15T06:42:41.527Z,3.00
2023-01-15T06:45:31.059Z,2.30
2023-01-15T06:47:58.854Z,2.80
2023-01-15T06:50:26.471Z,3.47
2023-01-15T06:52:54.285Z,2.67
2023-01-15T06:55:24.545Z,2.70
2023-01-15T06:57:52.270Z,2.43
2023-01-15T07:00:20.163Z,2.60
2023-01-15T07:02:48.051Z,2.40
2023-01-15T07:05:15.560Z,2.40
2023-01-15T07:07:43.002Z,2.30
2023-01-15T07:10:11.505Z,2.07
2023-01-15T07:12:40.116Z,2.70
2023-01-15T07:15:07.852Z,2.20
2023-01-15T07:17:35.576Z,2.60
2023-01-15T07:20:03.018Z,2.63
2023-01-15T07:22:30.648Z,3.00
2023-01-15T07:24:58.168Z,2.50
2023-01-15T07:27:25.603Z,2.80
2023-01-15T07:29:53.395Z,2.40
2023-01-15T07:32:28.015Z,2.37
2023-01-15T07:34:55.928Z,1.23
2023-01-15T07:37:23.482Z,1.73
2023-01-15T07:39:51.368Z,1.03
2023-01-15T07:42:38.751Z,1.33
2023-01-15T07:45:26.732Z,1.40
2023-01-15T07:48:14.950Z,1.60
2023-01-15T07:50:42.461Z,1.60
2023-01-15T07:53:09.925Z,1.20
2023-01-15T07:55:37.374Z,1.37
2023-01-15T07:58:04.771Z,1.40
2023-01-15T08:00:32.252Z,1.80
2023-01-15T08:02:59.687Z,1.80
2023-01-15T08:05:27.108Z,1.80
2023-01-15T08:07:54.506Z,1.40
2023-01-15T08:10:21.929Z,2.10
2023-01-15T08:13:11.125Z,1.80
2023-01-15T08:15:40.830Z,2.03
2023-01-15T08:18:08.377Z,2.37
2023-01-15T08:20:37.861Z,2.97
2023-01-15T08:23:05.457Z,1.77
2023-01-15T08:25:32.954Z,1.97
2023-01-15T08:28:02.759Z,2.27
2023-01-15T08:30:30.273Z,2.43
2023-01-15T08:33:03.443Z,2.37
2023-01-15T08:35:31.106Z,3.50
2023-01-15T08:37:58.580Z,2.80
2023-01-15T08:40:26.014Z,2.80
2023-01-15T08:42:55.655Z,3.03
2023-01-15T08:45:23.826Z,3.60
2023-01-15T08:47:51.234Z,2.77
2023-01-15T08:50:18.708Z,3.40
2023-01-15T08:52:46.191Z,3.23
2023-01-15T08:55:13.751Z,2.53
2023-01-15T08:57:41.192Z,3.10
2023-01-15T09:00:09.337Z,2.80
2023-01-15T09:02:36.848Z,3.00
2023-01-15T09:05:04.503Z,2.93
2023-01-15T09:07:32.055Z,2.50
2023-01-15T09:09:59.568Z,2.10
2023-01-15T09:12:27.562Z,2.60
2023-01-15T09:14:55.975Z,3.40
2023-01-15T09:17:28.723Z,2.70
2023-01-15T09:19:56.187Z,5.30
2023-01-15T09:22:23.680Z,3.30
2023-01-15T09:24:51.468Z,3.23
2023-01-15T09:27:18.917Z,2.77
2023-01-15T09:29:46.940Z,2.23
2023-01-15T09:32:14.629Z,3.13
2023-01-15T09:34:42.076Z,3.00
2023-01-15T09:37:09.602Z,3.17
2023-01-15T09:39:38.339Z,2.93
2023-01-15T09:42:25.544Z,3.33
2023-01-15T09:45:12.816Z,3.30
2023-01-15T09:47:42.582Z,3.33
2023-01-15T09:50:19.342Z,4.33
2023-01-15T09:53:00.052Z,4.43
2023-01-15T09:55:30.529Z,4.00
2023-01-15T09:58:00.684Z,4.30
2023-01-15T10:00:30.731Z,3.93
2023-01-15T10:03:18.142Z,4.43
2023-01-15T10:05:48.307Z,4.43
2023-01-15T10:08:17.351Z,4.37
2023-01-15T10:10:47.442Z,4.47
2023-01-15T10:13:34.884Z,6.73
2023-01-15T10:16:02.259Z,4.83
2023-01-15T10:18:30.391Z,5.17
2023-01-15T10:21:17.813Z,4.23
2023-01-15T10:24:05.999Z,4.77
2023-01-15T10:26:36.765Z,4.50
2023-01-15T10:29:13.627Z,4.67
2023-01-15T10:32:00.955Z,4.93
2023-01-15T10:34:48.324Z,5.70
2023-01-15T10:37:35.633Z,4.67
2023-01-15T10:40:22.856Z,5.30
2023-01-15T10:42:56.524Z,5.67
2023-01-15T10:45:25.581Z,4.87
2023-01-15T10:47:58.663Z,4.37
2023-01-15T10:50:26.894Z,5.67
2023-01-15T10:53:03.195Z,5.20
2023-01-15T10:55:35.481Z,4.60
2023-01-15T10:58:10.524Z,4.47
2023-01-15T11:00:39.587Z,5.13
2023-01-15T11:03:15.299Z,4.90
2023-01-15T11:05:45.978Z,5.73
2023-01-15T11:09:05.839Z,5.23
2023-01-15T11:11:17.263Z,5.97
2023-01-15T11:14:13.318Z,5.00
2023-01-15T11:17:02.413Z,5.38
2023-01-15T11:19:40.470Z,4.83
2023-01-15T11:22:13.737Z,5.00
2023-01-15T11:25:01.120Z,3.80
2023-01-15T11:27:32.007Z,5.10
2023-01-15T11:30:00.537Z,4.10
2023-01-15T11:32:30.415Z,4.80
2023-01-15T11:34:58.538Z,4.20
2023-01-15T11:37:26.247Z,4.43
2023-01-15T11:39:54.343Z,4.10
2023-01-15T11:42:44.225Z,3.40
2023-01-15T11:45:35.698Z,3.67
2023-01-15T11:48:23.059Z,4.00
2023-01-15T11:50:52.975Z,3.97
2023-01-15T11:53:23.559Z,3.93
2023-01-15T11:55:52.467Z,3.40
2023-01-15T11:58:20.067Z,3.77
2023-01-15T12:00:50.743Z,3.80
2023-01-15T12:03:20.217Z,5.83
2023-01-15T12:05:48.810Z,3.77
2023-01-15T12:08:36.165Z,4.53
2023-01-15T12:11:26.431Z,5.17
2023-01-15T12:14:14.176Z,6.40
2023-01-15T12:17:01.421Z,6.00
2023-01-15T12:19:48.743Z,4.50
2023-01-15T12:22:24.285Z,4.73
2023-01-15T12:25:11.551Z,14.23
2023-01-15T12:27:59.323Z,4.43
2023-01-15T12:30:46.651Z,8.23
2023-01-15T12:33:20.530Z,7.00
2023-01-15T12:35:56.303Z,3.97
2023-01-15T12:38:43.800Z,8.70
2023-01-15T12:41:14.435Z,4.77
2023-01-15T12:44:05.084Z,4.10
2023-01-15T12:46:33.847Z,5.17
2023-01-15T12:49:21.269Z,4.37
2023-01-15T12:51:53.312Z,4.13
2023-01-15T12:54:25.175Z,4.10
2023-01-15T12:56:56.227Z,10.03
2023-01-15T12:59:30.319Z,4.30
2023-01-15T13:02:09.825Z,6.37
2023-01-15T13:04:54.949Z,5.10
2023-01-15T13:07:26.423Z,7.85
2023-01-15T13:09:59.477Z,6.40
2023-01-15T13:12:28.961Z,4.73
2023-01-15T13:14:56.442Z,4.03
2023-01-15T13:17:44.873Z,4.40
2023-01-15T13:20:21.195Z,3.90
2023-01-15T13:22:55.672Z,3.37
2023-01-15T13:25:43.042Z,4.00
2023-01-15T13:28:18.409Z,3.90
2023-01-15T13:33:19.437Z,4.17
2023-01-15T13:35:49.192Z,4.30
2023-01-15T13:38:19.212Z,4.40
2023-01-15T13:40:52.137Z,5.90
2023-01-15T13:43:40.806Z,15.17
2023-01-15T13:46:09.990Z,5.00
2023-01-15T13:48:47.150Z,5.03
2023-01-15T13:51:28.656Z,4.50
2023-01-15T13:53:57.297Z,5.30
2023-01-15T13:56:33.214Z,4.03
2023-01-15T13:59:02.037Z,4.10
2023-01-15T14:01:35.353Z,4.60
2023-01-15T14:04:22.870Z,4.10
2023-01-15T14:06:51.508Z,4.53
2023-01-15T14:09:38.718Z,4.43
2023-01-15T14:12:14.494Z,4.37
2023-01-15T14:15:01.797Z,4.87
2023-01-15T14:17:49.363Z,5.63
2023-01-15T14:20:37.388Z,4.43
2023-01-15T14:23:24.697Z,4.80
2023-01-15T14:26:12.501Z,4.63
2023-01-15T14:28:59.857Z,5.30
2023-01-15T14:31:47.165Z,4.93
2023-01-15T14:34:17.213Z,4.30
2023-01-15T14:36:51.330Z,3.87
2023-01-15T14:39:27.381Z,4.53
2023-01-15T14:42:21.433Z,5.50
2023-01-15T14:44:56.968Z,4.03
2023-01-15T14:47:28.449Z,4.13
2023-01-15T14:50:01.607Z,4.60
2023-01-15T14:52:29.314Z,4.47
2023-01-15T14:54:57.744Z,4.07
2023-01-15T14:57:25.992Z,4.47
2023-01-15T14:59:55.880Z,4.20
2023-01-15T15:02:25.561Z,4.10
2023-01-15T15:04:54.298Z,4.37
2023-01-15T15:07:23.192Z,4.60
2023-01-15T15:09:55.706Z,5.73
2023-01-15T15:12:42.958Z,5.03
2023-01-15T15:15:30.233Z,3.90
2023-01-15T15:18:17.602Z,4.17
2023-01-15T15:21:04.947Z,4.30
2023-01-15T15:23:52.278Z,4.10
2023-01-15T15:26:39.478Z,4.47
2023-01-15T15:29:08.302Z,4.90
2023-01-15T15:31:37.662Z,4.43
2023-01-15T15:34:06.979Z,4.00
2023-01-15T15:36:39.055Z,4.27
2023-01-15T15:39:17.479Z,4.27
2023-01-15T15:42:06.280Z,4.80
2023-01-15T15:45:00.862Z,5.00
2023-01-15T15:47:48.251Z,5.13
2023-01-15T15:50:24.186Z,5.67
2023-01-15T15:52:52.018Z,4.87
2023-01-15T15:55:20.211Z,4.63
2023-01-15T15:57:49.875Z,4.63
2023-01-15T16:00:19.652Z,5.97
2023-01-15T16:02:47.498Z,5.90
2023-01-15T16:05:32.595Z,4.00
2023-01-15T16:08:09.726Z,4.10
2023-01-15T16:10:37.229Z,4.97
2023-01-15T16:13:05.949Z,5.63
2023-01-15T16:15:37.224Z,5.30
2023-01-15T16:18:04.881Z,5.00
2023-01-15T16:20:33.356Z,5.37
2023-01-15T16:23:03.044Z,5.30
2023-01-15T16:25:50.284Z,5.90
2023-01-15T16:28:24.428Z,4.93
2023-01-15T16:33:20.438Z,4.13
2023-01-15T16:35:48.231Z,3.67
2023-01-15T16:38:19.286Z,4.67
2023-01-15T16:40:47.148Z,4.77
2023-01-15T16:43:16.635Z,4.83
2023-01-15T16:46:02.282Z,5.13
2023-01-15T16:48:36.880Z,5.40
2023-01-15T16:51:24.303Z,6.18
2023-01-15T16:53:51.730Z,4.40
2023-01-15T16:56:39.101Z,4.87
2023-01-15T16:59:12.781Z,4.90
2023-01-15T17:01:42.446Z,4.57
2023-01-15T17:04:19.763Z,4.10
2023-01-15T17:06:55.233Z,4.03
2023-01-15T17:11:51.352Z,4.07
2023-01-15T17:14:23.804Z,3.63
2023-01-15T17:17:11.103Z,4.13
2023-01-15T17:19:38.467Z,3.83
2023-01-15T17:22:06.977Z,4.80
2023-01-15T17:24:34.412Z,3.90
2023-01-15T17:27:01.916Z,3.93
2023-01-15T17:29:29.746Z,3.73
2023-01-15T17:31:59.047Z,3.90
2023-01-15T17:34:26.923Z,4.30
2023-01-15T17:36:54.397Z,5.03
2023-01-15T17:39:21.902Z,4.03
2023-01-15T17:41:49.298Z,5.10
2023-01-15T17:44:16.686Z,4.43
2023-01-15T17:46:44.242Z,5.30
2023-01-15T17:49:11.703Z,4.80
2023-01-15T17:51:39.154Z,4.23
2023-01-15T17:54:06.620Z,4.73
2023-01-15T17:56:53.883Z,4.90
2023-01-15T17:59:41.912Z,4.30
2023-01-15T18:02:34.735Z,4.90
2023-01-15T18:05:22.004Z,5.00
2023-01-15T18:07:49.451Z,4.17
2023-01-15T18:10:19.084Z,4.07
2023-01-15T18:12:47.040Z,3.97
2023-01-15T18:15:15.201Z,4.53
2023-01-15T18:17:42.825Z,4.20
2023-01-15T18:20:10.939Z,5.27
2023-01-15T18:22:38.552Z,4.30
2023-01-15T18:25:07.061Z,4.50
2023-01-15T18:27:34.541Z,4.50
2023-01-15T18:30:01.952Z,4.30
2023-01-15T18:32:30.641Z,4.47
2023-01-15T18:34:58.576Z,5.10
2023-01-15T18:37:26.339Z,3.83
2023-01-15T18:39:53.819Z,4.27
2023-01-15T18:42:44.359Z,3.10
2023-01-15T18:45:32.329Z,4.10
2023-01-15T18:48:02.830Z,3.23
2023-01-15T18:50:45.878Z,3.67
2023-01-15T18:53:14.859Z,4.33
2023-01-15T18:55:43.840Z,3.67
2023-01-15T18:58:11.547Z,3.70
2023-01-15T19:00:39.537Z,4.00
2023-01-15T19:03:07.309Z,3.70
2023-01-15T19:05:34.767Z,3.87
2023-01-15T19:08:02.553Z,4.60
2023-01-15T19:10:30.173Z,4.10
2023-01-15T19:12:57.795Z,4.63
2023-01-15T19:15:45.230Z,3.57
2023-01-15T19:18:32.618Z,3.60
2023-01-15T19:21:00.661Z,4.00
2023-01-15T19:23:32.116Z,3.60
2023-01-15T19:25:59.838Z,3.20
2023-01-15T19:28:51.273Z,4.10
2023-01-15T19:31:40.211Z,3.67
2023-01-15T19:34:32.635Z,2.80
2023-01-15T19:36:58.978Z,4.13
2023-01-15T19:39:27.518Z,3.70
2023-01-15T19:42:16.324Z,4.87
2023-01-15T19:45:03.827Z,3.67
2023-01-15T19:47:55.291Z,3.30
2023-01-15T19:50:26.666Z,4.03
2023-01-15T19:52:57.396Z,2.73
2023-01-15T19:55:26.255Z,3.43
2023-01-15T19:57:57.946Z,4.87
2023-01-15T20:00:26.224Z,3.87
2023-01-15T20:02:55.373Z,4.07
2023-01-15T20:05:23.572Z,3.97
2023-01-15T20:07:51.873Z,3.50
2023-01-15T20:10:22.192Z,3.40
2023-01-15T20:13:10.587Z,3.63
2023-01-15T20:15:39.472Z,3.60
2023-01-15T20:18:07.688Z,3.50
2023-01-15T20:20:35.340Z,3.30
2023-01-15T20:23:03.584Z,3.73
2023-01-15T20:25:31.726Z,3.90
2023-01-15T20:28:00.944Z,3.13
2023-01-15T20:30:29.100Z,3.10
2023-01-15T20:33:02.291Z,2.63
2023-01-15T20:35:31.806Z,3.23
2023-01-15T20:37:59.590Z,3.73
2023-01-15T20:40:27.307Z,2.80
2023-01-15T20:43:17.525Z,3.50
2023-01-15T20:45:45.522Z,4.40
2023-01-15T20:48:18.600Z,3.53
2023-01-15T20:51:03.369Z,2.87
2023-01-15T20:53:33.739Z,3.37
2023-01-15T20:56:02.228Z,2.77
2023-01-15T20:58:30.319Z,2.97
2023-01-15T21:01:03.229Z,2.73
2023-01-15T21:03:30.951Z,3.27
2023-01-15T21:05:59.588Z,2.87
2023-01-15T21:08:29.334Z,2.50
2023-01-15T21:11:02.011Z,3.20
2023-01-15T21:13:32.580Z,3.07
2023-01-15T21:16:02.309Z,2.87
2023-01-15T21:18:40.302Z,2.77
2023-01-15T21:21:12.898Z,3.77
2023-01-15T21:23:41.233Z,2.93
2023-01-15T21:26:09.459Z,2.73
2023-01-15T21:28:41.623Z,2.10
2023-01-15T21:31:10.529Z,2.33
2023-01-15T21:33:39.992Z,2.10
2023-01-15T21:36:08.605Z,2.60
2023-01-15T21:38:36.396Z,2.43
2023-01-15T21:41:12.170Z,2.30
2023-01-15T21:43:59.467Z,3.63
2023-01-15T21:46:28.658Z,1.60
2023-01-15T21:48:56.740Z,2.10
2023-01-15T21:51:24.398Z,2.60
2023-01-15T21:53:52.099Z,1.97
2023-01-15T21:56:20.142Z,2.30
2023-01-15T21:58:47.583Z,2.23
2023-01-15T22:01:18.231Z,2.00
2023-01-15T22:03:46.291Z,2.47
2023-01-15T22:06:14.578Z,2.47
2023-01-15T22:08:42.194Z,2.00
2023-01-15T22:11:47.396Z,2.33
2023-01-15T22:14:34.690Z,2.87
2023-01-15T22:17:03.364Z,2.17
2023-01-15T22:19:31.925Z,2.47
2023-01-15T22:22:01.884Z,3.03
2023-01-15T22:24:30.692Z,2.17
2023-01-15T22:26:58.472Z,2.23
2023-01-15T22:29:27.733Z,2.10
2023-01-15T22:31:55.309Z,2.30
2023-01-15T22:34:26.198Z,2.30
2023-01-15T22:36:53.943Z,2.47
2023-01-15T22:39:21.699Z,1.90
2023-01-15T22:42:09.023Z,2.10
2023-01-15T22:44:36.937Z,2.30
2023-01-15T22:47:05.004Z,2.00
2023-01-15T22:49:32.480Z,2.10
2023-01-15T22:52:00.002Z,2.00
2023-01-15T22:54:27.501Z,1.83
2023-01-15T22:56:54.999Z,2.50
2023-01-15T22:59:22.511Z,2.13
2023-01-15T23:01:50.146Z,2.00
2023-01-15T23:04:19.261Z,1.57
2023-01-15T23:06:47.383Z,2.37
2023-01-15T23:09:14.718Z,2.17
2023-01-15T23:11:42.122Z,2.10
2023-01-15T23:14:11.461Z,2.73
2023-01-15T23:16:39.136Z,2.13
2023-01-15T23:19:06.620Z,2.37
2023-01-15T23:21:34.524Z,3.37
2023-01-15T23:24:02.493Z,2.20
2023-01-15T23:26:31.963Z,2.37
2023-01-15T23:28:59.934Z,1.93
2023-01-15T23:31:27.777Z,2.30
2023-01-15T23:33:55.446Z,2.03
2023-01-15T23:36:23.419Z,1.70
2023-01-15T23:38:51.611Z,3.70
2023-01-15T23:41:40.714Z,2.47
2023-01-15T23:44:33.712Z,1.63
2023-01-15T23:47:01.203Z,2.30
2023-01-15T23:49:29.248Z,2.00
2023-01-15T23:51:57.270Z,2.00
2023-01-15T23:54:29.099Z,1.77
2023-01-15T23:56:56.892Z,2.70
2023-01-15T23:59:24.821Z,1.97
